createdAt,value
2019-04-28T05:39:40.312Z,10.85
2019-04-28T05:44:45.658Z,10.78
2019-04-28T05:49:52.482Z,10.87
2019-04-28T05:55:03.042Z,11.07
2019-04-28T06:00:19.803Z,11.23
2019-04-28T06:05:24.870Z,11.43
2019-04-28T06:10:30.474Z,11.50
2019-04-28T06:15:35.706Z,11.78
2019-04-28T06:20:40.911Z,11.81
2019-04-28T06:25:46.401Z,11.69
2019-04-28T06:30:51.598Z,11.85
2019-04-28T06:35:56.802Z,11.99
2019-04-28T06:41:02.107Z,12.16
2019-04-28T06:46:07.542Z,12.34
2019-04-28T06:51:12.646Z,12.53
2019-04-28T06:56:18.872Z,12.52
2019-04-28T07:01:24.071Z,12.59
2019-04-28T07:06:29.588Z,12.67
2019-04-28T07:11:34.815Z,12.74
2019-04-28T07:16:39.975Z,12.68
2019-04-28T07:21:46.711Z,12.61
2019-04-28T07:26:51.947Z,12.61
2019-04-28T07:31:57.157Z,12.74
2019-04-28T07:37:02.342Z,12.85
2019-04-28T07:42:08.062Z,12.85
2019-04-28T07:47:13.285Z,13.04
2019-04-28T07:52:20.235Z,12.97
2019-04-28T07:57:25.464Z,12.95
2019-04-28T08:02:30.675Z,13.04
2019-04-28T08:07:35.797Z,13.25
2019-04-28T08:12:40.950Z,13.39
2019-04-28T08:17:46.465Z,13.34
2019-04-28T08:22:51.618Z,13.31
2019-04-28T08:27:56.987Z,13.44
2019-04-28T08:33:09.732Z,13.41
2019-04-28T08:38:14.834Z,13.54
2019-04-28T08:43:20.243Z,13.69
2019-04-28T08:48:25.474Z,13.95
2019-04-28T08:53:30.693Z,13.90
2019-04-28T08:58:35.835Z,14.08
2019-04-28T09:03:41.014Z,14.03
2019-04-28T09:08:46.304Z,14.11
2019-04-28T09:13:51.808Z,14.03
2019-04-28T09:18:57.097Z,14.17
2019-04-28T09:24:02.236Z,13.83
2019-04-28T09:29:07.660Z,14.00
2019-04-28T09:34:13.060Z,13.97
2019-04-28T09:39:19.886Z,14.19
2019-04-28T09:44:25.158Z,14.40
2019-04-28T09:49:30.238Z,14.37
2019-04-28T09:54:35.268Z,14.54
2019-04-28T09:59:40.324Z,14.52
2019-04-28T10:04:45.447Z,14.52
2019-04-28T10:09:50.692Z,14.55
2019-04-28T10:14:55.943Z,14.49
2019-04-28T10:20:01.107Z,14.66
2019-04-28T10:25:09.793Z,14.78
2019-04-28T10:30:15.457Z,14.43
2019-04-28T10:35:20.713Z,14.27
2019-04-28T10:40:37.939Z,14.29
2019-04-28T10:45:44.929Z,14.48
2019-04-28T10:50:51.896Z,14.63
2019-04-28T10:55:57.127Z,14.61
2019-04-28T11:01:02.364Z,14.58
2019-04-28T11:06:07.596Z,14.73
2019-04-28T11:11:17.236Z,14.82
2019-04-28T11:16:25.589Z,14.88
2019-04-28T11:21:30.813Z,14.92
2019-04-28T11:26:36.151Z,14.90
2019-04-28T11:31:41.648Z,14.78
2019-04-28T11:36:46.975Z,14.93
2019-04-28T11:41:52.132Z,14.64
2019-04-28T11:46:57.258Z,14.71
2019-04-28T11:52:02.461Z,15.06
2019-04-28T11:57:07.611Z,15.13
2019-04-28T12:02:12.735Z,15.44
2019-04-28T12:07:17.966Z,15.31
2019-04-28T12:12:30.870Z,15.13
2019-04-28T12:17:53.988Z,14.94
2019-04-28T12:22:59.232Z,15.30
2019-04-28T12:28:04.348Z,15.92
2019-04-28T12:33:09.918Z,15.92
2019-04-28T12:38:15.142Z,15.59
2019-04-28T12:43:20.416Z,15.09
2019-04-28T12:48:25.755Z,14.97
2019-04-28T12:53:31.048Z,14.68
2019-04-28T12:58:36.291Z,14.73
2019-04-28T13:03:45.966Z,14.92
2019-04-28T13:08:51.170Z,14.78
2019-04-28T13:13:56.680Z,14.78
2019-04-28T13:19:02.141Z,14.71
2019-04-28T13:24:07.689Z,14.67
2019-04-28T13:29:13.297Z,14.49
2019-04-28T13:34:20.047Z,14.44
2019-04-28T13:39:33.041Z,14.46
2019-04-28T13:44:56.477Z,14.56
2019-04-28T13:50:03.424Z,14.50
2019-04-28T13:55:28.908Z,14.44
2019-04-28T14:00:38.200Z,14.52
2019-04-28T14:05:45.150Z,14.53
2019-04-28T14:10:50.294Z,14.42
2019-04-28T14:15:55.749Z,14.49
2019-04-28T14:21:01.272Z,14.27
2019-04-28T14:26:06.692Z,14.03
2019-04-28T14:31:11.988Z,14.10
2019-04-28T14:36:17.231Z,13.90
2019-04-28T14:41:22.627Z,13.53
2019-04-28T14:46:27.855Z,13.26
2019-04-28T14:51:33.623Z,13.26
2019-04-28T14:56:38.795Z,13.28
2019-04-28T15:02:02.018Z,13.15
2019-04-28T15:07:11.884Z,13.16
2019-04-28T15:12:17.091Z,13.12
2019-04-28T15:17:22.305Z,13.02
2019-04-28T15:22:27.658Z,13.28
2019-04-28T15:27:32.911Z,13.30
2019-04-28T15:32:38.217Z,13.28
2019-04-28T15:37:43.507Z,13.25
2019-04-28T15:42:48.840Z,13.30
2019-04-28T15:47:55.120Z,13.31
2019-04-28T15:53:00.670Z,13.27
2019-04-28T15:58:23.934Z,13.32
2019-04-28T16:03:29.213Z,13.20
2019-04-28T16:08:35.594Z,13.10
2019-04-28T16:13:40.646Z,13.21
2019-04-28T16:18:46.043Z,13.12
2019-04-28T16:23:51.524Z,13.13
2019-04-28T16:28:57.048Z,13.26
2019-04-28T16:34:02.344Z,13.27
2019-04-28T16:39:08.994Z,13.18
2019-04-28T16:44:16.027Z,13.26
2019-04-28T16:49:21.272Z,13.24
2019-04-28T16:54:26.467Z,13.33
2019-04-28T16:59:41.976Z,13.12
2019-04-28T17:04:48.713Z,13.23
2019-04-28T17:09:53.901Z,13.15
2019-04-28T17:14:59.126Z,13.06
2019-04-28T17:20:06.696Z,13.04
2019-04-28T17:25:12.873Z,13.12
2019-04-28T17:30:21.391Z,12.96
2019-04-28T17:35:26.788Z,12.84
2019-04-28T17:40:32.996Z,12.89
2019-04-28T17:45:38.384Z,12.86
2019-04-28T17:50:45.347Z,12.77
2019-04-28T17:55:50.419Z,12.68
2019-04-28T18:00:57.317Z,12.72
2019-04-28T18:06:18.858Z,12.81
2019-04-28T18:11:24.113Z,12.78
2019-04-28T18:16:46.786Z,12.69
2019-04-28T18:21:52.629Z,12.55
2019-04-28T18:26:57.839Z,12.58
2019-04-28T18:32:07.443Z,12.65
2019-04-28T18:37:17.112Z,12.53
2019-04-28T18:42:23.955Z,12.64
2019-04-28T18:47:29.050Z,12.52
2019-04-28T18:52:35.722Z,12.49
2019-04-28T18:57:40.909Z,12.50
2019-04-28T19:02:47.887Z,12.51
2019-04-28T19:08:10.984Z,12.57
2019-04-28T19:13:23.937Z,12.63
2019-04-28T19:18:33.700Z,12.71
2019-04-28T19:23:39.997Z,12.79
2019-04-28T19:28:45.191Z,12.70
2019-04-28T19:33:50.502Z,12.62
2019-04-28T19:39:03.076Z,12.67
2019-04-28T19:44:02.846Z,12.65
2019-04-28T19:49:08.070Z,12.51
2019-04-28T19:54:13.774Z,12.52
2019-04-28T19:59:23.896Z,12.57
2019-04-28T20:04:29.140Z,12.67
2019-04-28T20:09:34.296Z,12.55
2019-04-28T20:14:39.470Z,12.57
2019-04-28T20:19:44.821Z,12.31
2019-04-28T20:24:50.273Z,12.34
2019-04-28T20:29:55.600Z,12.35
2019-04-28T20:35:00.901Z,12.36
2019-04-28T20:40:08.941Z,12.37
2019-04-28T20:45:15.915Z,12.35
2019-04-28T20:50:20.984Z,12.25
2019-04-28T20:55:26.030Z,12.36
2019-04-28T21:00:31.335Z,12.38
2019-04-28T21:05:36.515Z,12.37
2019-04-28T21:10:41.683Z,12.39
2019-04-28T21:15:46.865Z,12.32
2019-04-28T21:20:52.029Z,12.39
2019-04-28T21:25:57.381Z,12.32
2019-04-28T21:31:02.723Z,12.32
2019-04-28T21:36:07.945Z,12.31
2019-04-28T21:41:14.816Z,12.33
2019-04-28T21:46:27.792Z,12.28
2019-04-28T21:51:33.537Z,12.04
2019-04-28T21:56:38.771Z,11.93
2019-04-28T22:01:44.372Z,11.91
2019-04-28T22:06:49.704Z,12.00
2019-04-28T22:11:54.750Z,11.94
2019-04-28T22:16:59.920Z,12.00
2019-04-28T22:22:05.156Z,12.06
2019-04-28T22:27:12.090Z,12.05
2019-04-28T22:32:17.576Z,12.12
2019-04-28T22:37:22.706Z,12.05
2019-04-28T22:42:28.863Z,12.05
2019-04-28T22:47:33.969Z,12.03
2019-04-28T22:52:39.206Z,12.08
2019-04-28T22:57:46.071Z,12.03
2019-04-28T23:02:51.449Z,12.09
2019-04-28T23:07:56.527Z,12.01
2019-04-28T23:13:01.679Z,11.88
2019-04-28T23:18:06.961Z,11.88
2019-04-28T23:23:12.842Z,11.80
2019-04-28T23:28:18.003Z,11.63
2019-04-28T23:33:23.301Z,11.51
2019-04-28T23:38:29.041Z,11.40
2019-04-28T23:43:34.388Z,11.33
2019-04-28T23:48:39.481Z,11.38
2019-04-28T23:54:02.244Z,11.41
2019-04-28T23:59:07.294Z,11.49
